createdAt,value
2023-04-22T00:03:12.117Z,99.90
2023-04-22T00:06:54.907Z,99.90
2023-04-22T00:10:36.971Z,99.90
2023-04-22T00:14:20.652Z,99.90
2023-04-22T00:18:02.678Z,99.90
2023-04-22T00:21:44.638Z,99.90
2023-04-22T00:25:26.817Z,99.90
2023-04-22T00:29:08.813Z,99.90
2023-04-22T00:32:50.854Z,99.90
2023-04-22T00:36:32.899Z,99.90
2023-04-22T00:40:15.042Z,99.90
2023-04-22T00:43:58.531Z,99.90
2023-04-22T00:47:41.715Z,99.90
2023-04-22T00:51:23.721Z,99.90
2023-04-22T00:55:06.066Z,99.90
2023-04-22T00:58:48.073Z,99.90
2023-04-22T01:02:30.601Z,99.90
2023-04-22T01:06:13.412Z,99.90
2023-04-22T01:09:55.349Z,99.90
2023-04-22T01:13:38.461Z,99.90
2023-04-22T01:17:22.100Z,99.90
2023-04-22T01:21:04.662Z,99.90
2023-04-22T01:24:46.643Z,99.90
2023-04-22T01:28:29.571Z,99.90
2023-04-22T01:32:11.692Z,99.90
2023-04-22T01:35:53.820Z,99.90
2023-04-22T01:39:36.150Z,99.90
2023-04-22T01:43:18.054Z,99.90
2023-04-22T01:47:00.217Z,99.90
2023-04-22T01:50:42.188Z,99.90
2023-04-22T01:54:24.093Z,99.90
2023-04-22T01:58:06.208Z,99.90
2023-04-22T02:01:48.638Z,99.90
2023-04-22T02:05:30.696Z,99.90
2023-04-22T02:09:12.679Z,99.90
2023-04-22T02:12:54.728Z,99.90
2023-04-22T02:16:36.696Z,99.90
2023-04-22T02:20:19.262Z,99.90
2023-04-22T02:24:01.349Z,99.90
2023-04-22T02:27:43.315Z,99.90
2023-04-22T02:31:25.747Z,99.90
2023-04-22T02:35:08.104Z,99.90
2023-04-22T02:38:50.057Z,99.90
2023-04-22T02:42:31.981Z,99.90
2023-04-22T02:46:16.188Z,99.90
2023-04-22T02:49:58.219Z,99.90
2023-04-22T02:53:40.361Z,99.90
2023-04-22T02:57:22.351Z,99.90
2023-04-22T03:01:04.556Z,99.90
2023-04-22T03:04:46.684Z,99.90
2023-04-22T03:08:28.609Z,99.90
2023-04-22T03:12:10.662Z,99.90
2023-04-22T03:15:52.631Z,99.90
2023-04-22T03:19:34.537Z,99.90
2023-04-22T03:23:16.385Z,99.90
2023-04-22T03:26:58.616Z,99.90
2023-04-22T03:30:40.704Z,99.90
2023-04-22T03:34:23.258Z,99.90
2023-04-22T03:38:05.137Z,99.90
2023-04-22T03:41:47.018Z,99.90
2023-04-22T03:45:29.247Z,99.90
2023-04-22T03:49:11.821Z,99.90
2023-04-22T03:52:53.740Z,99.90
2023-04-22T03:56:36.874Z,99.90
2023-04-22T04:00:18.768Z,99.90
2023-04-22T04:04:00.996Z,99.90
2023-04-22T04:07:43.118Z,99.90
2023-04-22T04:11:25.098Z,99.90
2023-04-22T04:15:07.887Z,99.90
2023-04-22T04:18:53.213Z,99.90
2023-04-22T04:22:35.252Z,99.90
2023-04-22T04:26:18.294Z,99.90
2023-04-22T04:30:00.234Z,99.90
2023-04-22T04:33:43.020Z,99.90
2023-04-22T04:37:24.976Z,99.90
2023-04-22T04:41:09.710Z,99.90
2023-04-22T04:44:53.727Z,99.90
2023-04-22T04:48:36.472Z,99.90
2023-04-22T04:52:18.468Z,99.90
2023-04-22T04:56:00.581Z,99.90
2023-04-22T04:59:42.674Z,99.90
2023-04-22T05:03:24.952Z,99.90
2023-04-22T05:07:07.004Z,99.90
2023-04-22T05:10:49.162Z,99.90
2023-04-22T05:14:31.413Z,99.90
2023-04-22T05:18:13.386Z,99.90
2023-04-22T05:21:55.226Z,99.90
2023-04-22T05:25:37.390Z,99.90
2023-04-22T05:29:19.387Z,99.90
2023-04-22T05:33:01.390Z,99.90
2023-04-22T05:36:43.341Z,99.90
2023-04-22T05:40:25.568Z,99.90
2023-04-22T05:44:07.898Z,99.90
2023-04-22T05:47:49.988Z,99.90
2023-04-22T05:51:32.989Z,99.90
2023-04-22T05:55:14.913Z,99.90
2023-04-22T05:58:56.822Z,99.90
2023-04-22T06:02:38.889Z,99.90
2023-04-22T06:06:21.597Z,99.90
2023-04-22T06:14:01.727Z,99.90
2023-04-22T06:17:44.497Z,99.90
2023-04-22T06:21:40.224Z,99.90
2023-04-22T06:25:22.582Z,99.90
2023-04-22T06:29:05.773Z,99.90
2023-04-22T06:32:55.380Z,99.90
2023-04-22T06:36:38.606Z,99.90
2023-04-22T06:40:20.943Z,99.90
2023-04-22T06:44:10.243Z,99.90
2023-04-22T06:47:55.683Z,99.90
2023-04-22T06:51:38.388Z,99.90
2023-04-22T06:55:28.061Z,99.90
2023-04-22T06:59:10.488Z,99.90
2023-04-22T07:02:53.086Z,99.90
2023-04-22T07:06:42.717Z,99.90
2023-04-22T07:10:25.109Z,99.90
2023-04-22T07:14:07.446Z,99.90
2023-04-22T07:17:56.930Z,99.90
2023-04-22T07:21:39.409Z,99.90
2023-04-22T07:25:21.627Z,99.90
2023-04-22T07:29:32.353Z,99.90
2023-04-22T07:33:14.502Z,99.90
2023-04-22T07:41:01.446Z,99.90
2023-04-22T07:48:55.146Z,99.90
2023-04-22T07:56:47.463Z,99.90
2023-04-22T08:04:41.159Z,99.90
2023-04-22T08:21:37.393Z,99.90
2023-04-22T08:34:01.542Z,99.90
2023-04-22T08:46:25.730Z,99.90
2023-04-22T08:58:59.331Z,99.90
2023-04-22T09:11:20.489Z,99.90
2023-04-22T09:28:08.808Z,99.90
2023-04-22T09:45:10.476Z,99.90
2023-04-22T10:06:35.277Z,99.90
2023-04-22T10:14:26.622Z,99.90
2023-04-22T10:32:26.335Z,99.90
2023-04-22T10:45:56.605Z,99.90
2023-04-22T10:54:56.528Z,99.90
2023-04-22T11:08:26.123Z,99.90
2023-04-22T11:17:26.777Z,99.90
2023-04-22T11:26:26.072Z,99.90
2023-04-22T12:07:05.536Z,99.90
2023-04-22T12:15:59.542Z,99.90
2023-04-22T12:25:01.903Z,99.20
2023-04-22T12:46:30.782Z,96.60
2023-04-22T12:55:25.185Z,99.50
2023-04-22T13:08:55.382Z,99.80
2023-04-22T13:17:57.518Z,99.20
2023-04-22T13:36:04.719Z,96.70
2023-04-22T13:52:56.568Z,93.40
2023-04-22T14:06:27.466Z,95.10
2023-04-22T14:10:54.190Z,95.00
2023-04-22T14:19:54.684Z,97.10
2023-04-22T14:48:03.920Z,96.40
2023-04-22T14:57:09.206Z,95.90
2023-04-22T15:06:11.480Z,94.10
2023-04-22T15:15:06.528Z,94.00
2023-04-22T15:27:36.120Z,92.00
2023-04-22T15:36:30.793Z,93.90
2023-04-22T15:45:33.591Z,93.30
2023-04-22T15:50:07.145Z,94.40
2023-04-22T16:02:24.681Z,92.10
2023-04-22T16:15:49.783Z,96.40
2023-04-22T16:37:19.774Z,99.90
2023-04-22T16:46:19.671Z,99.90
2023-04-22T16:55:19.651Z,99.90
2023-04-22T16:59:49.167Z,99.90
2023-04-22T17:04:21.692Z,99.90
2023-04-22T17:35:58.622Z,99.90
2023-04-22T17:48:26.265Z,99.90
2023-04-22T17:52:47.081Z,99.90
2023-04-22T18:18:46.212Z,99.90
2023-04-22T18:36:43.552Z,99.90
2023-04-22T18:49:13.254Z,99.90
2023-04-22T19:11:41.859Z,99.90
2023-04-22T19:16:08.798Z,99.90
2023-04-22T19:19:51.125Z,99.90
2023-04-22T19:23:34.239Z,99.90
2023-04-22T19:27:16.270Z,99.90
2023-04-22T19:31:00.106Z,99.90
2023-04-22T19:34:43.489Z,99.90
2023-04-22T19:38:26.068Z,99.90
2023-04-22T19:42:08.078Z,99.90
2023-04-22T19:45:50.046Z,99.90
2023-04-22T19:49:32.952Z,99.90
2023-04-22T19:53:16.335Z,99.90
2023-04-22T19:56:58.669Z,99.90
2023-04-22T20:00:40.836Z,99.90
2023-04-22T20:04:23.136Z,99.90
2023-04-22T20:08:08.246Z,99.90
2023-04-22T20:11:50.831Z,99.90
2023-04-22T20:15:33.250Z,99.90
2023-04-22T20:19:15.391Z,99.90
2023-04-22T20:23:01.005Z,99.90
2023-04-22T20:26:43.129Z,99.90
2023-04-22T20:30:25.316Z,99.90
2023-04-22T20:34:07.304Z,99.90
2023-04-22T20:37:50.951Z,99.90
2023-04-22T20:41:39.298Z,99.90
2023-04-22T20:45:22.462Z,99.90
2023-04-22T20:49:04.714Z,99.90
2023-04-22T20:52:48.561Z,99.90
2023-04-22T20:56:30.432Z,99.90
2023-04-22T21:00:12.909Z,99.90
2023-04-22T21:03:58.026Z,99.90
2023-04-22T21:07:40.682Z,99.90
2023-04-22T21:11:22.788Z,99.90
2023-04-22T21:15:05.279Z,99.90
2023-04-22T21:18:48.308Z,99.90
2023-04-22T21:22:31.099Z,99.90
2023-04-22T21:26:14.912Z,99.90
2023-04-22T21:29:57.462Z,99.90
2023-04-22T21:33:39.440Z,99.90
2023-04-22T21:37:21.380Z,99.90
2023-04-22T21:41:03.400Z,99.90
2023-04-22T21:44:49.985Z,99.90
2023-04-22T21:48:31.947Z,99.90
2023-04-22T21:52:14.195Z,99.90
2023-04-22T21:55:56.097Z,99.90
2023-04-22T21:59:38.263Z,99.90
2023-04-22T22:03:20.759Z,99.90
2023-04-22T22:07:02.881Z,99.90
2023-04-22T22:10:45.164Z,99.90
2023-04-22T22:14:27.068Z,99.90
2023-04-22T22:18:09.091Z,99.90
2023-04-22T22:21:51.381Z,99.90
2023-04-22T22:25:33.315Z,99.90
2023-04-22T22:29:15.703Z,99.90
2023-04-22T22:32:57.765Z,99.90
2023-04-22T22:36:39.931Z,99.90
2023-04-22T22:40:22.128Z,99.90
2023-04-22T22:44:04.100Z,99.90
2023-04-22T22:47:46.393Z,99.90
2023-04-22T22:51:30.787Z,99.90
2023-04-22T22:55:13.819Z,99.90
2023-04-22T22:58:56.283Z,99.90
2023-04-22T23:02:38.574Z,99.90
2023-04-22T23:06:20.857Z,99.90
2023-04-22T23:10:02.803Z,99.90
2023-04-22T23:13:44.733Z,99.90
2023-04-22T23:17:27.488Z,99.90
2023-04-22T23:21:10.547Z,99.90
2023-04-22T23:24:52.676Z,99.90
2023-04-22T23:28:34.965Z,99.90
2023-04-22T23:32:20.094Z,99.90
2023-04-22T23:36:05.436Z,99.90
2023-04-22T23:39:47.378Z,99.90
2023-04-22T23:43:29.328Z,99.90
2023-04-22T23:47:12.352Z,99.90
2023-04-22T23:50:54.286Z,99.90
2023-04-22T23:54:36.515Z,99.90
2023-04-22T23:58:18.610Z,99.90
